X  Fermer Données météorologiques d'aviation de Metar     LQBK Banja Luka International Airport
Température
15°C Température
15°C Point de rosée
100% Humidité



Vent
3 KM/H
2 MPH
1 M/S
2 KTS



Calme
N
Conditions actuelles

Légère  Pluie Légère Pluie
Pression 1017.95 (hPa) - 30.06 (inHg)
Visibilité 6 (mile) - 9.7 (km)
Aéroport
Code de l'aéroport LQBK

Emplacement: Banja Luka International Airport
Distance: 70 (km)

Metar:
LQBK 242230Z VRB02KT 9999 -RA SCT045 15/15 Q1018 NOSIG

Temps: 25-05-2024 00:30 CEST